sensor_id;sensor_type;location;lat;lon;timestamp;P1;durP1;ratioP1;P2;durP2;ratioP2
46745;SDS011;32493;50.514;9.678;2023-04-03T00:00:39;5.90;;;1.73;;
46745;SDS011;32493;50.514;9.678;2023-04-03T00:02:44;5.40;;;1.50;;
46745;SDS011;32493;50.514;9.678;2023-04-03T00:04:50;5.20;;;1.60;;
46745;SDS011;32493;50.514;9.678;2023-04-03T00:06:55;6.10;;;1.25;;
46745;SDS011;32493;50.514;9.678;2023-04-03T00:09:01;3.15;;;1.23;;
46745;SDS011;32493;50.514;9.678;2023-04-03T00:11:09;7.03;;;1.17;;
46745;SDS011;32493;50.514;9.678;2023-04-03T00:13:15;2.97;;;0.93;;
46745;SDS011;32493;50.514;9.678;2023-04-03T00:15:23;6.90;;;1.30;;
46745;SDS011;32493;50.514;9.678;2023-04-03T00:17:28;6.45;;;1.40;;
46745;SDS011;32493;50.514;9.678;2023-04-03T00:19:33;7.53;;;1.50;;
46745;SDS011;32493;50.514;9.678;2023-04-03T00:21:39;4.13;;;1.23;;
46745;SDS011;32493;50.514;9.678;2023-04-03T00:23:44;2.33;;;1.10;;
46745;SDS011;32493;50.514;9.678;2023-04-03T00:25:51;6.18;;;1.20;;
46745;SDS011;32493;50.514;9.678;2023-04-03T00:27:57;4.40;;;1.40;;
46745;SDS011;32493;50.514;9.678;2023-04-03T00:30:03;4.63;;;1.92;;
46745;SDS011;32493;50.514;9.678;2023-04-03T00:32:13;3.20;;;1.23;;
46745;SDS011;32493;50.514;9.678;2023-04-03T00:34:18;5.85;;;1.40;;
46745;SDS011;32493;50.514;9.678;2023-04-03T00:36:24;4.63;;;1.02;;
46745;SDS011;32493;50.514;9.678;2023-04-03T00:38:29;3.17;;;1.30;;
46745;SDS011;32493;50.514;9.678;2023-04-03T00:40:36;5.72;;;1.40;;
46745;SDS011;32493;50.514;9.678;2023-04-03T00:42:43;4.03;;;1.10;;
46745;SDS011;32493;50.514;9.678;2023-04-03T00:47:42;3.50;;;1.23;;
46745;SDS011;32493;50.514;9.678;2023-04-03T00:49:47;10.90;;;1.60;;
46745;SDS011;32493;50.514;9.678;2023-04-03T00:51:54;4.20;;;1.63;;
46745;SDS011;32493;50.514;9.678;2023-04-03T00:54:02;10.00;;;1.25;;
46745;SDS011;32493;50.514;9.678;2023-04-03T00:56:12;3.42;;;1.15;;
46745;SDS011;32493;50.514;9.678;2023-04-03T00:58:25;3.17;;;1.40;;
46745;SDS011;32493;50.514;9.678;2023-04-03T01:00:38;5.82;;;1.40;;
46745;SDS011;32493;50.514;9.678;2023-04-03T01:02:51;5.00;;;1.40;;
46745;SDS011;32493;50.514;9.678;2023-04-03T01:04:59;6.10;;;1.45;;
46745;SDS011;32493;50.514;9.678;2023-04-03T01:07:05;5.45;;;1.85;;
46745;SDS011;32493;50.514;9.678;2023-04-03T01:09:13;5.05;;;1.42;;
46745;SDS011;32493;50.514;9.678;2023-04-03T01:11:18;8.95;;;1.80;;
46745;SDS011;32493;50.514;9.678;2023-04-03T01:13:26;11.95;;;3.75;;
46745;SDS011;32493;50.514;9.678;2023-04-03T01:15:34;10.82;;;3.25;;
46745;SDS011;32493;50.514;9.678;2023-04-03T01:17:40;11.65;;;3.00;;
46745;SDS011;32493;50.514;9.678;2023-04-03T01:19:50;15.00;;;4.25;;
46745;SDS011;32493;50.514;9.678;2023-04-03T01:22:23;22.90;;;4.63;;
46745;SDS011;32493;50.514;9.678;2023-04-03T01:24:33;13.20;;;3.67;;
46745;SDS011;32493;50.514;9.678;2023-04-03T01:26:43;9.82;;;2.80;;
46745;SDS011;32493;50.514;9.678;2023-04-03T01:28:48;8.13;;;1.75;;
46745;SDS011;32493;50.514;9.678;2023-04-03T01:30:56;7.55;;;2.20;;
46745;SDS011;32493;50.514;9.678;2023-04-03T01:33:12;6.03;;;1.50;;
46745;SDS011;32493;50.514;9.678;2023-04-03T01:35:20;6.93;;;1.38;;
46745;SDS011;32493;50.514;9.678;2023-04-03T01:37:26;7.78;;;1.60;;
46745;SDS011;32493;50.514;9.678;2023-04-03T01:39:31;3.67;;;1.25;;
46745;SDS011;32493;50.514;9.678;2023-04-03T01:41:36;4.35;;;1.77;;
46745;SDS011;32493;50.514;9.678;2023-04-03T01:43:51;7.18;;;1.60;;
46745;SDS011;32493;50.514;9.678;2023-04-03T01:45:56;7.72;;;1.33;;
46745;SDS011;32493;50.514;9.678;2023-04-03T01:48:01;5.57;;;1.33;;
46745;SDS011;32493;50.514;9.678;2023-04-03T01:50:10;6.95;;;2.25;;
46745;SDS011;32493;50.514;9.678;2023-04-03T01:52:15;3.97;;;1.20;;
46745;SDS011;32493;50.514;9.678;2023-04-03T01:54:21;11.27;;;1.85;;
46745;SDS011;32493;50.514;9.678;2023-04-03T01:56:26;6.40;;;1.52;;
46745;SDS011;32493;50.514;9.678;2023-04-03T01:58:32;3.92;;;1.55;;
46745;SDS011;32493;50.514;9.678;2023-04-03T02:00:37;7.57;;;1.40;;
46745;SDS011;32493;50.514;9.678;2023-04-03T02:02:43;4.88;;;1.83;;
46745;SDS011;32493;50.514;9.678;2023-04-03T02:04:48;5.65;;;1.42;;
46745;SDS011;32493;50.514;9.678;2023-04-03T02:06:56;6.22;;;1.50;;
46745;SDS011;32493;50.514;9.678;2023-04-03T02:09:02;4.65;;;1.83;;
46745;SDS011;32493;50.514;9.678;2023-04-03T02:11:07;7.85;;;2.10;;
46745;SDS011;32493;50.514;9.678;2023-04-03T02:13:12;6.60;;;1.55;;
46745;SDS011;32493;50.514;9.678;2023-04-03T02:15:19;3.97;;;1.73;;
46745;SDS011;32493;50.514;9.678;2023-04-03T02:17:24;5.43;;;1.35;;
46745;SDS011;32493;50.514;9.678;2023-04-03T02:19:29;6.53;;;1.67;;
46745;SDS011;32493;50.514;9.678;2023-04-03T02:21:35;4.75;;;1.80;;
46745;SDS011;32493;50.514;9.678;2023-04-03T02:23:43;6.85;;;1.80;;
46745;SDS011;32493;50.514;9.678;2023-04-03T02:27:53;7.13;;;1.85;;
46745;SDS011;32493;50.514;9.678;2023-04-03T02:29:58;2.92;;;1.30;;
46745;SDS011;32493;50.514;9.678;2023-04-03T02:32:04;9.43;;;2.00;;
46745;SDS011;32493;50.514;9.678;2023-04-03T02:34:10;9.57;;;1.60;;
46745;SDS011;32493;50.514;9.678;2023-04-03T02:36:16;6.47;;;2.20;;
46745;SDS011;32493;50.514;9.678;2023-04-03T02:38:27;9.15;;;2.35;;
46745;SDS011;32493;50.514;9.678;2023-04-03T02:40:35;8.63;;;1.98;;
46745;SDS011;32493;50.514;9.678;2023-04-03T02:42:40;9.05;;;1.80;;
46745;SDS011;32493;50.514;9.678;2023-04-03T02:44:46;9.80;;;1.80;;
46745;SDS011;32493;50.514;9.678;2023-04-03T02:46:51;5.10;;;2.13;;
46745;SDS011;32493;50.514;9.678;2023-04-03T02:48:57;4.63;;;1.20;;
46745;SDS011;32493;50.514;9.678;2023-04-03T02:51:03;4.75;;;1.70;;
46745;SDS011;32493;50.514;9.678;2023-04-03T02:53:09;5.65;;;1.85;;
46745;SDS011;32493;50.514;9.678;2023-04-03T02:55:14;5.55;;;1.58;;
46745;SDS011;32493;50.514;9.678;2023-04-03T02:57:25;9.55;;;2.00;;
46745;SDS011;32493;50.514;9.678;2023-04-03T02:59:31;6.03;;;1.70;;
46745;SDS011;32493;50.514;9.678;2023-04-03T03:01:36;6.85;;;1.35;;
46745;SDS011;32493;50.514;9.678;2023-04-03T03:03:42;5.88;;;1.77;;
46745;SDS011;32493;50.514;9.678;2023-04-03T03:05:47;6.85;;;1.92;;
46745;SDS011;32493;50.514;9.678;2023-04-03T03:07:52;8.48;;;1.77;;
46745;SDS011;32493;50.514;9.678;2023-04-03T03:09:58;7.18;;;1.80;;
46745;SDS011;32493;50.514;9.678;2023-04-03T03:12:03;7.32;;;1.77;;
46745;SDS011;32493;50.514;9.678;2023-04-03T03:14:12;5.90;;;1.60;;
46745;SDS011;32493;50.514;9.678;2023-04-03T03:16:17;4.03;;;1.65;;
46745;SDS011;32493;50.514;9.678;2023-04-03T03:18:22;7.18;;;2.15;;
46745;SDS011;32493;50.514;9.678;2023-04-03T03:20:28;6.18;;;1.65;;
46745;SDS011;32493;50.514;9.678;2023-04-03T03:22:33;8.05;;;1.85;;
46745;SDS011;32493;50.514;9.678;2023-04-03T03:24:39;8.63;;;2.10;;
46745;SDS011;32493;50.514;9.678;2023-04-03T03:26:44;4.60;;;1.73;;
46745;SDS011;32493;50.514;9.678;2023-04-03T03:28:49;8.02;;;2.22;;
46745;SDS011;32493;50.514;9.678;2023-04-03T03:30:58;5.35;;;1.80;;
46745;SDS011;32493;50.514;9.678;2023-04-03T03:33:05;6.40;;;1.67;;
46745;SDS011;32493;50.514;9.678;2023-04-03T03:35:11;5.50;;;1.88;;
46745;SDS011;32493;50.514;9.678;2023-04-03T03:37:16;7.55;;;2.03;;
46745;SDS011;32493;50.514;9.678;2023-04-03T03:39:21;7.90;;;2.08;;
46745;SDS011;32493;50.514;9.678;2023-04-03T03:41:27;8.50;;;2.55;;
46745;SDS011;32493;50.514;9.678;2023-04-03T03:43:33;8.68;;;1.95;;
46745;SDS011;32493;50.514;9.678;2023-04-03T03:45:40;10.55;;;2.08;;
46745;SDS011;32493;50.514;9.678;2023-04-03T03:47:48;9.13;;;2.50;;
46745;SDS011;32493;50.514;9.678;2023-04-03T03:49:54;9.30;;;2.10;;
46745;SDS011;32493;50.514;9.678;2023-04-03T03:51:59;7.95;;;1.83;;
46745;SDS011;32493;50.514;9.678;2023-04-03T03:54:05;7.15;;;2.40;;
46745;SDS011;32493;50.514;9.678;2023-04-03T03:56:12;10.88;;;2.17;;
46745;SDS011;32493;50.514;9.678;2023-04-03T03:58:19;5.18;;;2.08;;
46745;SDS011;32493;50.514;9.678;2023-04-03T04:00:24;7.45;;;2.08;;
46745;SDS011;32493;50.514;9.678;2023-04-03T04:02:31;10.02;;;2.10;;
46745;SDS011;32493;50.514;9.678;2023-04-03T04:04:39;5.57;;;2.20;;
46745;SDS011;32493;50.514;9.678;2023-04-03T04:06:45;7.60;;;2.30;;
46745;SDS011;32493;50.514;9.678;2023-04-03T04:08:51;7.28;;;2.10;;
46745;SDS011;32493;50.514;9.678;2023-04-03T04:10:56;7.95;;;2.33;;
46745;SDS011;32493;50.514;9.678;2023-04-03T04:13:02;4.97;;;1.80;;
46745;SDS011;32493;50.514;9.678;2023-04-03T04:15:08;5.03;;;2.20;;
46745;SDS011;32493;50.514;9.678;2023-04-03T04:17:15;9.23;;;2.13;;
46745;SDS011;32493;50.514;9.678;2023-04-03T04:19:21;9.40;;;2.30;;
46745;SDS011;32493;50.514;9.678;2023-04-03T04:21:29;8.95;;;2.08;;
46745;SDS011;32493;50.514;9.678;2023-04-03T04:23:34;6.60;;;2.13;;
46745;SDS011;32493;50.514;9.678;2023-04-03T04:25:39;8.60;;;2.15;;
46745;SDS011;32493;50.514;9.678;2023-04-03T04:27:44;9.40;;;2.20;;
46745;SDS011;32493;50.514;9.678;2023-04-03T04:29:50;10.40;;;2.10;;
46745;SDS011;32493;50.514;9.678;2023-04-03T04:31:56;3.42;;;1.70;;
46745;SDS011;32493;50.514;9.678;2023-04-03T04:34:02;6.25;;;2.00;;
46745;SDS011;32493;50.514;9.678;2023-04-03T04:36:10;5.53;;;1.80;;
46745;SDS011;32493;50.514;9.678;2023-04-03T04:38:21;4.45;;;1.80;;
46745;SDS011;32493;50.514;9.678;2023-04-03T04:40:27;6.47;;;2.60;;
46745;SDS011;32493;50.514;9.678;2023-04-03T04:42:33;4.43;;;1.88;;
46745;SDS011;32493;50.514;9.678;2023-04-03T04:44:40;7.85;;;2.35;;
46745;SDS011;32493;50.514;9.678;2023-04-03T04:46:47;8.70;;;2.88;;
46745;SDS011;32493;50.514;9.678;2023-04-03T04:48:54;6.75;;;1.80;;
46745;SDS011;32493;50.514;9.678;2023-04-03T04:53:10;6.32;;;2.20;;
46745;SDS011;32493;50.514;9.678;2023-04-03T04:55:18;10.02;;;2.17;;
46745;SDS011;32493;50.514;9.678;2023-04-03T04:57:24;9.88;;;2.80;;
46745;SDS011;32493;50.514;9.678;2023-04-03T04:59:32;8.38;;;2.65;;
46745;SDS011;32493;50.514;9.678;2023-04-03T05:03:49;7.57;;;2.38;;
46745;SDS011;32493;50.514;9.678;2023-04-03T05:05:56;4.68;;;2.20;;
46745;SDS011;32493;50.514;9.678;2023-04-03T05:08:04;11.98;;;3.65;;
46745;SDS011;32493;50.514;9.678;2023-04-03T05:10:14;8.50;;;2.95;;
46745;SDS011;32493;50.514;9.678;2023-04-03T05:12:23;12.57;;;3.15;;
46745;SDS011;32493;50.514;9.678;2023-04-03T05:14:33;7.70;;;2.85;;
46745;SDS011;32493;50.514;9.678;2023-04-03T05:16:41;8.25;;;2.63;;
46745;SDS011;32493;50.514;9.678;2023-04-03T05:18:46;7.75;;;2.80;;
46745;SDS011;32493;50.514;9.678;2023-04-03T05:20:55;9.80;;;3.10;;
46745;SDS011;32493;50.514;9.678;2023-04-03T05:23:01;6.82;;;2.80;;
46745;SDS011;32493;50.514;9.678;2023-04-03T05:25:16;10.10;;;2.97;;
46745;SDS011;32493;50.514;9.678;2023-04-03T05:27:33;7.88;;;3.00;;
46745;SDS011;32493;50.514;9.678;2023-04-03T05:29:40;9.23;;;2.78;;
46745;SDS011;32493;50.514;9.678;2023-04-03T05:31:51;6.10;;;2.67;;
46745;SDS011;32493;50.514;9.678;2023-04-03T05:33:57;8.73;;;3.15;;
46745;SDS011;32493;50.514;9.678;2023-04-03T05:38:17;12.32;;;3.13;;
46745;SDS011;32493;50.514;9.678;2023-04-03T05:40:22;11.05;;;3.00;;
46745;SDS011;32493;50.514;9.678;2023-04-03T05:42:33;7.70;;;3.47;;
46745;SDS011;32493;50.514;9.678;2023-04-03T05:44:38;6.28;;;2.95;;
46745;SDS011;32493;50.514;9.678;2023-04-03T05:46:44;8.27;;;3.00;;
46745;SDS011;32493;50.514;9.678;2023-04-03T05:48:49;11.82;;;3.50;;
46745;SDS011;32493;50.514;9.678;2023-04-03T05:50:58;8.45;;;3.08;;
46745;SDS011;32493;50.514;9.678;2023-04-03T05:53:04;9.05;;;3.60;;
46745;SDS011;32493;50.514;9.678;2023-04-03T05:55:10;8.27;;;3.00;;
46745;SDS011;32493;50.514;9.678;2023-04-03T05:57:15;10.48;;;3.00;;
46745;SDS011;32493;50.514;9.678;2023-04-03T05:59:23;6.93;;;2.95;;
46745;SDS011;32493;50.514;9.678;2023-04-03T06:01:31;6.90;;;3.22;;
46745;SDS011;32493;50.514;9.678;2023-04-03T06:03:37;9.35;;;2.97;;
46745;SDS011;32493;50.514;9.678;2023-04-03T06:05:43;8.60;;;3.05;;
46745;SDS011;32493;50.514;9.678;2023-04-03T06:07:49;8.48;;;3.20;;
46745;SDS011;32493;50.514;9.678;2023-04-03T06:09:55;7.78;;;3.47;;
46745;SDS011;32493;50.514;9.678;2023-04-03T06:12:02;11.85;;;3.85;;
46745;SDS011;32493;50.514;9.678;2023-04-03T06:14:07;6.70;;;3.10;;
46745;SDS011;32493;50.514;9.678;2023-04-03T06:16:16;8.80;;;3.25;;
46745;SDS011;32493;50.514;9.678;2023-04-03T06:18:22;7.47;;;2.80;;
46745;SDS011;32493;50.514;9.678;2023-04-03T06:20:28;8.15;;;3.30;;
46745;SDS011;32493;50.514;9.678;2023-04-03T06:22:39;8.88;;;3.35;;
46745;SDS011;32493;50.514;9.678;2023-04-03T06:24:51;8.35;;;3.28;;
46745;SDS011;32493;50.514;9.678;2023-04-03T06:26:57;5.47;;;2.58;;
46745;SDS011;32493;50.514;9.678;2023-04-03T06:29:03;7.75;;;3.13;;
46745;SDS011;32493;50.514;9.678;2023-04-03T06:31:08;9.13;;;3.17;;
46745;SDS011;32493;50.514;9.678;2023-04-03T06:33:16;8.02;;;3.20;;
46745;SDS011;32493;50.514;9.678;2023-04-03T06:35:22;4.03;;;2.65;;
46745;SDS011;32493;50.514;9.678;2023-04-03T06:37:28;10.18;;;3.30;;
46745;SDS011;32493;50.514;9.678;2023-04-03T06:39:34;7.32;;;2.80;;
46745;SDS011;32493;50.514;9.678;2023-04-03T06:41:39;9.73;;;3.03;;
46745;SDS011;32493;50.514;9.678;2023-04-03T06:43:44;8.95;;;3.00;;
46745;SDS011;32493;50.514;9.678;2023-04-03T06:45:51;8.80;;;2.83;;
46745;SDS011;32493;50.514;9.678;2023-04-03T06:47:57;9.07;;;3.00;;
46745;SDS011;32493;50.514;9.678;2023-04-03T06:50:06;5.78;;;2.72;;
46745;SDS011;32493;50.514;9.678;2023-04-03T06:52:15;7.72;;;3.20;;
46745;SDS011;32493;50.514;9.678;2023-04-03T06:54:20;10.73;;;3.10;;
46745;SDS011;32493;50.514;9.678;2023-04-03T06:56:26;8.07;;;2.95;;
46745;SDS011;32493;50.514;9.678;2023-04-03T06:58:32;7.18;;;2.35;;
46745;SDS011;32493;50.514;9.678;2023-04-03T07:00:38;8.13;;;3.17;;
46745;SDS011;32493;50.514;9.678;2023-04-03T07:02:43;5.60;;;2.75;;
46745;SDS011;32493;50.514;9.678;2023-04-03T07:04:48;11.98;;;3.95;;
46745;SDS011;32493;50.514;9.678;2023-04-03T07:06:56;8.88;;;3.17;;
46745;SDS011;32493;50.514;9.678;2023-04-03T07:11:07;7.32;;;2.88;;
46745;SDS011;32493;50.514;9.678;2023-04-03T07:13:14;9.80;;;2.97;;
46745;SDS011;32493;50.514;9.678;2023-04-03T07:15:19;5.07;;;2.75;;
46745;SDS011;32493;50.514;9.678;2023-04-03T07:17:26;7.65;;;2.90;;
46745;SDS011;32493;50.514;9.678;2023-04-03T07:19:32;5.45;;;2.90;;
46745;SDS011;32493;50.514;9.678;2023-04-03T07:21:37;6.85;;;2.72;;
46745;SDS011;32493;50.514;9.678;2023-04-03T07:23:45;8.30;;;3.38;;
46745;SDS011;32493;50.514;9.678;2023-04-03T07:25:52;11.43;;;2.85;;
46745;SDS011;32493;50.514;9.678;2023-04-03T07:27:58;6.07;;;2.67;;
46745;SDS011;32493;50.514;9.678;2023-04-03T07:30:04;10.77;;;3.15;;
46745;SDS011;32493;50.514;9.678;2023-04-03T07:32:11;21.15;;;3.88;;
46745;SDS011;32493;50.514;9.678;2023-04-03T07:34:16;7.97;;;2.97;;
46745;SDS011;32493;50.514;9.678;2023-04-03T07:36:21;7.53;;;3.33;;
46745;SDS011;32493;50.514;9.678;2023-04-03T07:38:28;9.48;;;3.20;;
46745;SDS011;32493;50.514;9.678;2023-04-03T07:40:36;10.55;;;3.45;;
46745;SDS011;32493;50.514;9.678;2023-04-03T07:42:42;6.90;;;3.22;;
46745;SDS011;32493;50.514;9.678;2023-04-03T07:44:47;5.15;;;2.95;;
46745;SDS011;32493;50.514;9.678;2023-04-03T07:46:53;6.82;;;2.97;;
46745;SDS011;32493;50.514;9.678;2023-04-03T07:48:59;6.50;;;3.42;;
46745;SDS011;32493;50.514;9.678;2023-04-03T07:51:04;6.45;;;2.70;;
46745;SDS011;32493;50.514;9.678;2023-04-03T07:53:10;4.47;;;3.20;;
46745;SDS011;32493;50.514;9.678;2023-04-03T07:55:15;8.93;;;3.60;;
46745;SDS011;32493;50.514;9.678;2023-04-03T07:57:23;8.00;;;3.40;;
46745;SDS011;32493;50.514;9.678;2023-04-03T07:59:29;6.38;;;2.97;;
46745;SDS011;32493;50.514;9.678;2023-04-03T08:01:35;6.47;;;3.45;;
46745;SDS011;32493;50.514;9.678;2023-04-03T08:03:40;8.10;;;3.45;;
46745;SDS011;32493;50.514;9.678;2023-04-03T08:05:47;6.47;;;2.70;;
46745;SDS011;32493;50.514;9.678;2023-04-03T08:07:55;7.68;;;2.83;;
46745;SDS011;32493;50.514;9.678;2023-04-03T08:10:00;8.63;;;2.83;;
46745;SDS011;32493;50.514;9.678;2023-04-03T08:12:06;8.73;;;3.83;;
46745;SDS011;32493;50.514;9.678;2023-04-03T08:14:15;7.55;;;3.33;;
46745;SDS011;32493;50.514;9.678;2023-04-03T08:16:20;8.27;;;3.63;;
46745;SDS011;32493;50.514;9.678;2023-04-03T08:20:33;7.03;;;3.08;;
46745;SDS011;32493;50.514;9.678;2023-04-03T08:22:40;7.07;;;3.97;;
46745;SDS011;32493;50.514;9.678;2023-04-03T08:24:45;5.68;;;3.25;;
46745;SDS011;32493;50.514;9.678;2023-04-03T08:26:59;7.05;;;3.03;;
46745;SDS011;32493;50.514;9.678;2023-04-03T08:29:05;5.68;;;3.00;;
46745;SDS011;32493;50.514;9.678;2023-04-03T08:31:14;5.18;;;2.92;;
46745;SDS011;32493;50.514;9.678;2023-04-03T08:33:22;6.28;;;3.08;;
46745;SDS011;32493;50.514;9.678;2023-04-03T08:35:27;6.30;;;3.13;;
46745;SDS011;32493;50.514;9.678;2023-04-03T08:37:34;8.45;;;3.55;;
46745;SDS011;32493;50.514;9.678;2023-04-03T08:39:40;4.97;;;3.10;;
46745;SDS011;32493;50.514;9.678;2023-04-03T08:41:46;7.18;;;4.28;;
46745;SDS011;32493;50.514;9.678;2023-04-03T08:43:59;8.38;;;3.28;;
46745;SDS011;32493;50.514;9.678;2023-04-03T08:46:20;6.13;;;3.20;;
46745;SDS011;32493;50.514;9.678;2023-04-03T08:48:35;6.20;;;3.42;;
46745;SDS011;32493;50.514;9.678;2023-04-03T08:50:45;7.90;;;3.33;;
46745;SDS011;32493;50.514;9.678;2023-04-03T08:52:55;8.10;;;2.70;;
46745;SDS011;32493;50.514;9.678;2023-04-03T08:55:02;5.85;;;2.95;;
46745;SDS011;32493;50.514;9.678;2023-04-03T08:57:12;5.20;;;2.60;;
46745;SDS011;32493;50.514;9.678;2023-04-03T08:59:19;4.70;;;2.50;;
46745;SDS011;32493;50.514;9.678;2023-04-03T09:01:36;5.03;;;2.50;;
46745;SDS011;32493;50.514;9.678;2023-04-03T09:03:44;5.30;;;2.47;;
46745;SDS011;32493;50.514;9.678;2023-04-03T09:05:50;7.22;;;3.38;;
46745;SDS011;32493;50.514;9.678;2023-04-03T09:08:03;7.53;;;2.92;;
46745;SDS011;32493;50.514;9.678;2023-04-03T09:10:18;4.80;;;2.60;;
46745;SDS011;32493;50.514;9.678;2023-04-03T09:12:34;5.47;;;2.60;;
46745;SDS011;32493;50.514;9.678;2023-04-03T09:14:43;6.20;;;2.55;;
46745;SDS011;32493;50.514;9.678;2023-04-03T09:16:59;5.50;;;2.60;;
46745;SDS011;32493;50.514;9.678;2023-04-03T09:19:09;5.80;;;2.85;;
46745;SDS011;32493;50.514;9.678;2023-04-03T09:21:25;5.80;;;2.15;;
46745;SDS011;32493;50.514;9.678;2023-04-03T09:23:40;5.20;;;2.15;;
46745;SDS011;32493;50.514;9.678;2023-04-03T09:25:51;5.75;;;2.13;;
46745;SDS011;32493;50.514;9.678;2023-04-03T09:28:02;3.67;;;1.80;;
46745;SDS011;32493;50.514;9.678;2023-04-03T09:30:12;2.85;;;1.65;;
46745;SDS011;32493;50.514;9.678;2023-04-03T09:32:25;6.35;;;1.80;;
46745;SDS011;32493;50.514;9.678;2023-04-03T09:34:33;2.90;;;1.92;;
46745;SDS011;32493;50.514;9.678;2023-04-03T09:36:42;6.97;;;2.53;;
46745;SDS011;32493;50.514;9.678;2023-04-03T09:39:02;7.85;;;2.53;;
46745;SDS011;32493;50.514;9.678;2023-04-03T09:41:17;6.47;;;2.60;;
46745;SDS011;32493;50.514;9.678;2023-04-03T09:43:27;4.80;;;2.35;;
46745;SDS011;32493;50.514;9.678;2023-04-03T09:45:35;5.03;;;2.75;;
46745;SDS011;32493;50.514;9.678;2023-04-03T09:47:43;5.15;;;1.92;;
46745;SDS011;32493;50.514;9.678;2023-04-03T09:49:49;4.80;;;1.70;;
46745;SDS011;32493;50.514;9.678;2023-04-03T09:51:54;3.75;;;1.52;;
46745;SDS011;32493;50.514;9.678;2023-04-03T09:53:59;3.42;;;1.85;;
46745;SDS011;32493;50.514;9.678;2023-04-03T09:56:25;10.52;;;2.17;;
46745;SDS011;32493;50.514;9.678;2023-04-03T09:58:33;2.75;;;1.63;;
46745;SDS011;32493;50.514;9.678;2023-04-03T10:00:53;5.93;;;2.40;;
46745;SDS011;32493;50.514;9.678;2023-04-03T10:03:03;8.15;;;1.98;;
46745;SDS011;32493;50.514;9.678;2023-04-03T10:07:37;5.38;;;1.58;;
46745;SDS011;32493;50.514;9.678;2023-04-03T10:09:54;5.13;;;1.70;;
46745;SDS011;32493;50.514;9.678;2023-04-03T10:12:02;3.35;;;1.60;;
46745;SDS011;32493;50.514;9.678;2023-04-03T10:14:15;5.75;;;1.60;;
46745;SDS011;32493;50.514;9.678;2023-04-03T10:16:23;3.80;;;1.98;;
46745;SDS011;32493;50.514;9.678;2023-04-03T10:18:37;4.72;;;2.15;;
46745;SDS011;32493;50.514;9.678;2023-04-03T10:20:49;3.38;;;1.80;;
46745;SDS011;32493;50.514;9.678;2023-04-03T10:23:00;3.83;;;1.70;;
46745;SDS011;32493;50.514;9.678;2023-04-03T10:25:20;3.42;;;1.67;;
46745;SDS011;32493;50.514;9.678;2023-04-03T10:27:33;4.07;;;1.83;;
46745;SDS011;32493;50.514;9.678;2023-04-03T10:29:48;3.88;;;1.75;;
46745;SDS011;32493;50.514;9.678;2023-04-03T10:32:01;7.97;;;1.95;;
46745;SDS011;32493;50.514;9.678;2023-04-03T10:34:21;5.10;;;1.80;;
46745;SDS011;32493;50.514;9.678;2023-04-03T10:36:34;5.00;;;2.15;;
46745;SDS011;32493;50.514;9.678;2023-04-03T10:38:50;5.18;;;2.35;;
46745;SDS011;32493;50.514;9.678;2023-04-03T10:41:07;6.75;;;2.85;;
46745;SDS011;32493;50.514;9.678;2023-04-03T10:43:20;9.63;;;2.90;;
46745;SDS011;32493;50.514;9.678;2023-04-03T10:45:46;5.70;;;2.33;;
46745;SDS011;32493;50.514;9.678;2023-04-03T10:48:02;9.38;;;3.22;;
46745;SDS011;32493;50.514;9.678;2023-04-03T10:50:34;9.50;;;3.35;;
46745;SDS011;32493;50.514;9.678;2023-04-03T10:52:47;7.40;;;3.33;;
46745;SDS011;32493;50.514;9.678;2023-04-03T10:55:02;8.10;;;3.15;;
46745;SDS011;32493;50.514;9.678;2023-04-03T10:57:21;8.20;;;3.22;;
46745;SDS011;32493;50.514;9.678;2023-04-03T10:59:30;10.45;;;3.78;;
46745;SDS011;32493;50.514;9.678;2023-04-03T11:01:40;7.10;;;3.25;;
46745;SDS011;32493;50.514;9.678;2023-04-03T11:03:49;6.78;;;2.47;;
46745;SDS011;32493;50.514;9.678;2023-04-03T11:06:01;7.93;;;2.97;;
46745;SDS011;32493;50.514;9.678;2023-04-03T11:08:18;6.45;;;2.50;;
46745;SDS011;32493;50.514;9.678;2023-04-03T11:11:05;8.02;;;2.90;;
46745;SDS011;32493;50.514;9.678;2023-04-03T11:13:28;7.05;;;2.22;;
46745;SDS011;32493;50.514;9.678;2023-04-03T11:15:56;5.18;;;2.28;;
46745;SDS011;32493;50.514;9.678;2023-04-03T11:18:28;4.55;;;2.03;;
46745;SDS011;32493;50.514;9.678;2023-04-03T11:20:44;6.15;;;2.38;;
46745;SDS011;32493;50.514;9.678;2023-04-03T11:23:01;6.63;;;1.65;;
46745;SDS011;32493;50.514;9.678;2023-04-03T11:25:14;3.90;;;1.60;;
46745;SDS011;32493;50.514;9.678;2023-04-03T11:27:25;2.20;;;1.25;;
46745;SDS011;32493;50.514;9.678;2023-04-03T11:29:36;5.38;;;1.20;;
46745;SDS011;32493;50.514;9.678;2023-04-03T11:31:48;4.28;;;1.20;;
46745;SDS011;32493;50.514;9.678;2023-04-03T11:34:16;4.00;;;1.30;;
46745;SDS011;32493;50.514;9.678;2023-04-03T11:36:38;2.75;;;1.33;;
46745;SDS011;32493;50.514;9.678;2023-04-03T11:38:51;3.05;;;1.15;;
46745;SDS011;32493;50.514;9.678;2023-04-03T11:41:01;3.13;;;0.90;;
46745;SDS011;32493;50.514;9.678;2023-04-03T11:43:17;3.80;;;1.10;;
46745;SDS011;32493;50.514;9.678;2023-04-03T11:45:37;5.45;;;1.73;;
46745;SDS011;32493;50.514;9.678;2023-04-03T11:47:57;3.83;;;0.93;;
46745;SDS011;32493;50.514;9.678;2023-04-03T11:50:37;2.55;;;0.95;;
46745;SDS011;32493;50.514;9.678;2023-04-03T11:52:56;3.80;;;1.25;;
46745;SDS011;32493;50.514;9.678;2023-04-03T11:58:20;1.90;;;0.77;;
46745;SDS011;32493;50.514;9.678;2023-04-03T12:03:07;2.03;;;0.77;;
46745;SDS011;32493;50.514;9.678;2023-04-03T12:08:59;1.52;;;0.70;;
46745;SDS011;32493;50.514;9.678;2023-04-03T12:11:13;5.22;;;0.90;;
46745;SDS011;32493;50.514;9.678;2023-04-03T12:13:29;1.70;;;0.80;;
46745;SDS011;32493;50.514;9.678;2023-04-03T12:15:47;3.70;;;1.00;;
46745;SDS011;32493;50.514;9.678;2023-04-03T12:17:58;2.33;;;0.75;;
46745;SDS011;32493;50.514;9.678;2023-04-03T12:23:07;2.55;;;1.10;;
46745;SDS011;32493;50.514;9.678;2023-04-03T12:25:43;5.35;;;1.02;;
46745;SDS011;32493;50.514;9.678;2023-04-03T12:27:54;4.03;;;0.95;;
46745;SDS011;32493;50.514;9.678;2023-04-03T12:30:01;2.83;;;0.90;;
46745;SDS011;32493;50.514;9.678;2023-04-03T12:32:24;4.97;;;1.02;;
46745;SDS011;32493;50.514;9.678;2023-04-03T12:35:14;2.22;;;0.77;;
46745;SDS011;32493;50.514;9.678;2023-04-03T12:37:43;5.35;;;1.00;;
46745;SDS011;32493;50.514;9.678;2023-04-03T12:40:16;2.00;;;0.93;;
46745;SDS011;32493;50.514;9.678;2023-04-03T12:42:32;4.80;;;0.98;;
46745;SDS011;32493;50.514;9.678;2023-04-03T12:45:08;2.53;;;0.70;;
46745;SDS011;32493;50.514;9.678;2023-04-03T12:47:25;2.75;;;0.88;;
46745;SDS011;32493;50.514;9.678;2023-04-03T12:49:38;3.95;;;0.90;;
46745;SDS011;32493;50.514;9.678;2023-04-03T12:51:47;2.72;;;0.85;;
46745;SDS011;32493;50.514;9.678;2023-04-03T12:53:56;3.08;;;0.80;;
46745;SDS011;32493;50.514;9.678;2023-04-03T12:56:19;3.83;;;1.02;;
46745;SDS011;32493;50.514;9.678;2023-04-03T12:58:28;2.35;;;0.70;;
46745;SDS011;32493;50.514;9.678;2023-04-03T13:00:35;4.32;;;1.10;;
46745;SDS011;32493;50.514;9.678;2023-04-03T13:02:43;3.78;;;1.20;;
46745;SDS011;32493;50.514;9.678;2023-04-03T13:04:50;2.70;;;1.00;;
46745;SDS011;32493;50.514;9.678;2023-04-03T13:06:56;4.53;;;1.10;;
46745;SDS011;32493;50.514;9.678;2023-04-03T13:09:06;2.13;;;0.93;;
46745;SDS011;32493;50.514;9.678;2023-04-03T13:11:23;4.07;;;0.95;;
46745;SDS011;32493;50.514;9.678;2023-04-03T13:13:31;3.92;;;1.23;;
46745;SDS011;32493;50.514;9.678;2023-04-03T13:15:40;3.05;;;0.77;;
46745;SDS011;32493;50.514;9.678;2023-04-03T13:17:50;4.78;;;0.80;;
46745;SDS011;32493;50.514;9.678;2023-04-03T13:20:09;3.28;;;0.82;;
46745;SDS011;32493;50.514;9.678;2023-04-03T13:22:24;2.22;;;0.95;;
46745;SDS011;32493;50.514;9.678;2023-04-03T13:24:37;3.42;;;0.90;;
46745;SDS011;32493;50.514;9.678;2023-04-03T13:26:43;3.83;;;1.00;;
46745;SDS011;32493;50.514;9.678;2023-04-03T13:28:48;2.20;;;0.77;;